Villafranca de los Caballeros, Spain
Current Conditions -  °F | °C
As of 12:00 PM on Friday 28 Nov 2014 (Local Time) from LEAO Reporting Station
Scattered Clouds Scattered Clouds  
Wind Chill: 54°   Ceiling: Unl
Heat Index: 54°   Visibility: 4mi
Dew Point: 46°   Wind: 3mph
Humidity: 77%   Direction: 230°SW
Pressure: 29.12"   Gusts: NA
Location:  39.43°N, 3.36°W
Report Text: LEAO 281100Z 23003KT 190V280 7000 SCT030 SCT045 12/08 Q0986
Loading
Personal Weather Stations






























Interactive Weather Map New forecast layout! Learn more

10-Day Weather Forecast

Advertisements
Track Severe Weather on mobile